Time;durP1;ratioP1;P1;durP2;ratioP2;P2;SDS_P1;SDS_P2;PMS_P1;PMS_P2;Temp;Humidity;BMP_temperature;BMP_pressure;BME280_temperature;BME280_humidity;BME280_pressure;Samples;Min_cycle;Max_cycle;Signal;HPM_P1;HPM_P2
2024/02/21 00:00:46;;;;;;;7.60;3.97;;;9.10;99.90;;;;;;4996013;28;20674;-70
2024/02/21 00:03:12;;;;;;;8.50;4.30;;;9.10;99.90;;;;;;4996159;28;20436;-70
2024/02/21 00:05:38;;;;;;;10.80;4.53;;;9.10;99.90;;;;;;4996305;28;20166;-70
2024/02/21 00:08:03;;;;;;;6.87;4.43;;;8.90;99.90;;;;;;4996425;28;20179;-70
2024/02/21 00:10:31;;;;;;;5.80;3.77;;;8.90;99.90;;;;;;4995721;28;20209;-69
2024/02/21 00:12:57;;;;;;;6.07;4.27;;;8.90;99.90;;;;;;4995919;28;20777;-69
2024/02/21 00:15:22;;;;;;;7.60;4.30;;;9.00;99.90;;;;;;4992586;28;20401;-70
2024/02/21 00:17:48;;;;;;;8.20;4.60;;;9.00;99.90;;;;;;4996041;28;20175;-70
2024/02/21 00:20:14;;;;;;;9.07;4.33;;;9.20;99.90;;;;;;4995229;28;20196;-70
2024/02/21 00:22:40;;;;;;;8.13;3.37;;;9.20;99.90;;;;;;4980510;28;20428;-70
2024/02/21 00:25:06;;;;;;;8.07;5.00;;;9.20;99.90;;;;;;4975069;28;20178;-70
2024/02/21 00:27:32;;;;;;;11.83;4.37;;;9.20;99.90;;;;;;4975689;28;20183;-69
2024/02/21 00:29:57;;;;;;;6.77;4.30;;;9.30;99.90;;;;;;4976162;28;20540;-68
2024/02/21 00:32:23;;;;;;;7.43;4.40;;;9.30;99.90;;;;;;4989110;28;20444;-70
2024/02/21 00:34:49;;;;;;;7.03;3.87;;;9.20;99.90;;;;;;4995820;28;20172;-70
2024/02/21 00:37:14;;;;;;;8.00;4.53;;;9.20;99.90;;;;;;4995828;28;20198;-70
2024/02/21 00:39:40;;;;;;;4.73;3.87;;;9.10;99.90;;;;;;4995961;28;20203;-70
2024/02/21 00:42:07;;;;;;;5.20;4.30;;;9.20;99.90;;;;;;4996448;28;20199;-71
2024/02/21 00:44:32;;;;;;;7.83;3.93;;;9.20;99.90;;;;;;4997596;28;20165;-71
2024/02/21 00:46:58;;;;;;;8.67;4.03;;;9.10;99.90;;;;;;4996628;28;20833;-68
2024/02/21 00:49:24;;;;;;;9.60;4.37;;;9.30;99.90;;;;;;4996143;28;20240;-69
2024/02/21 00:51:49;;;;;;;6.63;4.27;;;9.40;99.90;;;;;;4987884;28;20200;-69
2024/02/21 00:54:16;;;;;;;7.37;3.93;;;9.50;99.90;;;;;;4977870;28;20166;-70
2024/02/21 00:56:42;;;;;;;8.20;4.53;;;9.50;99.90;;;;;;4977450;28;20171;-71
2024/02/21 00:59:08;;;;;;;9.00;3.77;;;9.40;99.90;;;;;;4977912;28;20418;-70
2024/02/21 01:01:33;;;;;;;7.27;4.10;;;9.40;99.90;;;;;;4983115;28;20436;-70
2024/02/21 01:04:00;;;;;;;7.33;3.90;;;9.30;99.90;;;;;;4996739;28;20170;-71
2024/02/21 01:06:25;;;;;;;8.93;4.40;;;9.30;99.90;;;;;;4996525;28;20586;-70
2024/02/21 01:08:51;;;;;;;8.50;3.90;;;9.30;99.90;;;;;;4996053;28;20462;-70
2024/02/21 01:11:17;;;;;;;9.80;4.47;;;9.30;99.90;;;;;;4992510;28;20194;-71
2024/02/21 01:13:43;;;;;;;10.50;4.93;;;9.30;99.90;;;;;;4976787;28;20173;-72
2024/02/21 01:16:08;;;;;;;9.70;4.23;;;9.20;99.90;;;;;;4976011;28;20190;-71
2024/02/21 01:18:34;;;;;;;7.83;4.60;;;9.10;99.90;;;;;;4986094;28;20171;-70
2024/02/21 01:21:01;;;;;;;7.63;4.30;;;9.10;99.90;;;;;;4994781;28;20203;-71
2024/02/21 01:23:26;;;;;;;10.47;4.37;;;9.10;99.90;;;;;;4976732;28;20444;-70
2024/02/21 01:25:52;;;;;;;11.00;4.90;;;9.10;99.90;;;;;;4975784;28;20480;-70
2024/02/21 01:28:18;;;;;;;8.10;3.73;;;9.00;99.90;;;;;;4976881;28;20252;-72
2024/02/21 01:30:44;;;;;;;5.83;4.00;;;8.90;99.90;;;;;;4976818;28;20207;-72
2024/02/21 01:33:09;;;;;;;7.77;3.97;;;8.90;99.90;;;;;;4994465;28;20418;-71
2024/02/21 01:35:36;;;;;;;8.53;4.10;;;8.90;99.90;;;;;;4996849;28;20177;-70
2024/02/21 01:38:02;;;;;;;7.67;4.00;;;8.80;99.90;;;;;;4993833;28;20205;-70
2024/02/21 01:40:28;;;;;;;7.80;4.37;;;8.90;99.90;;;;;;4994686;28;20958;-69
2024/02/21 01:42:55;;;;;;;6.87;4.07;;;9.10;99.90;;;;;;4991282;28;20176;-68
2024/02/21 01:45:21;;;;;;;10.73;4.10;;;9.00;99.90;;;;;;4993733;28;20174;-70
2024/02/21 01:47:48;;;;;;;9.07;4.20;;;9.00;99.90;;;;;;4995303;28;20406;-70
2024/02/21 01:50:15;;;;;;;8.70;3.93;;;9.00;99.90;;;;;;4995616;28;20460;-69
2024/02/21 01:52:43;;;;;;;8.13;4.20;;;9.10;99.90;;;;;;4985161;28;20968;-69
2024/02/21 01:55:11;;;;;;;7.50;4.50;;;9.00;99.90;;;;;;4976011;28;20442;-70
2024/02/21 01:57:37;;;;;;;12.63;3.80;;;9.00;99.90;;;;;;4975609;28;20825;-70
2024/02/21 02:00:03;;;;;;;8.50;3.90;;;9.00;99.90;;;;;;4973572;28;20450;-69
2024/02/21 02:02:29;;;;;;;6.13;3.43;;;9.10;99.90;;;;;;4981865;28;20496;-70
2024/02/21 02:04:56;;;;;;;10.03;3.60;;;9.30;99.90;;;;;;4994614;28;20410;-70
2024/02/21 02:07:21;;;;;;;6.70;3.67;;;9.40;99.90;;;;;;4994608;28;20421;-69
2024/02/21 02:09:47;;;;;;;6.60;3.20;;;9.30;99.90;;;;;;4994416;28;20445;-70
2024/02/21 02:12:13;;;;;;;9.17;3.80;;;9.30;99.90;;;;;;4989177;28;20167;-70
2024/02/21 02:14:38;;;;;;;6.50;3.70;;;9.40;99.90;;;;;;4975593;28;20221;-70
2024/02/21 02:17:04;;;;;;;7.37;3.20;;;9.50;99.90;;;;;;4975009;28;20219;-69
2024/02/21 02:19:29;;;;;;;5.07;3.50;;;9.50;99.90;;;;;;4977378;28;20167;-70
2024/02/21 02:22:01;;;;;;;6.57;3.00;;;9.60;99.90;;;;;;4978465;28;20211;-70
2024/02/21 02:24:27;;;;;;;8.33;4.97;;;9.50;99.90;;;;;;4994944;28;20538;-70
2024/02/21 02:26:53;;;;;;;4.97;3.33;;;9.30;99.90;;;;;;4996017;28;20411;-69
2024/02/21 02:29:18;;;;;;;7.90;3.70;;;9.10;99.90;;;;;;5002108;28;20199;-69
2024/02/21 02:31:44;;;;;;;5.90;3.47;;;9.10;99.90;;;;;;5001940;28;20185;-71
2024/02/21 02:34:09;;;;;;;5.83;3.90;;;9.10;99.90;;;;;;4976447;28;20539;-70
2024/02/21 02:36:36;;;;;;;7.00;3.80;;;9.10;99.90;;;;;;4975545;28;20245;-70
2024/02/21 02:39:01;;;;;;;7.50;4.17;;;9.20;99.90;;;;;;4976138;28;20188;-70
2024/02/21 02:41:27;;;;;;;8.03;3.50;;;9.10;99.90;;;;;;4973914;28;20448;-69
2024/02/21 02:43:52;;;;;;;6.53;3.53;;;9.20;99.90;;;;;;4994875;28;20170;-69
2024/02/21 02:46:18;;;;;;;7.87;3.47;;;9.30;99.90;;;;;;4993070;28;20179;-70
2024/02/21 02:48:44;;;;;;;8.53;4.07;;;9.40;99.90;;;;;;4994209;28;20213;-69
2024/02/21 02:51:10;;;;;;;5.27;3.50;;;9.40;99.90;;;;;;4994284;28;20220;-70
2024/02/21 02:53:36;;;;;;;14.23;4.30;;;9.10;99.90;;;;;;4994500;28;20407;-69
2024/02/21 02:56:01;;;;;;;5.43;2.97;;;9.30;99.90;;;;;;4995617;28;20181;-69
2024/02/21 02:58:27;;;;;;;7.27;3.30;;;9.20;99.90;;;;;;4993025;28;20213;-69
2024/02/21 03:00:52;;;;;;;7.50;3.77;;;9.20;99.90;;;;;;4993396;28;20192;-70
2024/02/21 03:03:18;;;;;;;7.93;3.33;;;9.20;99.90;;;;;;4979666;28;20191;-70
2024/02/21 03:05:44;;;;;;;6.90;4.30;;;9.20;99.90;;;;;;4974820;28;20171;-70
2024/02/21 03:08:09;;;;;;;10.43;4.40;;;9.10;99.90;;;;;;4974543;28;20178;-69
2024/02/21 03:10:35;;;;;;;6.93;4.00;;;8.90;99.90;;;;;;4990030;28;20467;-71
2024/02/21 03:13:01;;;;;;;16.13;4.80;;;8.80;99.90;;;;;;4985974;28;20188;-71
2024/02/21 03:15:27;;;;;;;8.60;3.60;;;8.60;99.90;;;;;;4979728;28;20674;-70
2024/02/21 03:17:52;;;;;;;9.70;3.80;;;8.70;99.90;;;;;;4979517;28;20278;-70
2024/02/21 03:20:19;;;;;;;7.80;3.80;;;8.60;99.90;;;;;;4979397;28;20198;-71
2024/02/21 03:22:45;;;;;;;5.53;3.97;;;8.70;99.90;;;;;;4988539;28;20265;-70
2024/02/21 03:25:12;;;;;;;7.70;4.60;;;8.90;99.90;;;;;;4998925;28;20843;-70
2024/02/21 03:27:38;;;;;;;6.57;4.50;;;9.00;99.90;;;;;;4998244;28;20166;-69
2024/02/21 03:30:04;;;;;;;6.03;4.23;;;8.80;99.90;;;;;;4997570;28;20456;-69
2024/02/21 03:32:30;;;;;;;6.60;4.30;;;9.00;99.90;;;;;;4990823;28;20406;-70
2024/02/21 03:34:55;;;;;;;6.30;4.27;;;9.20;99.90;;;;;;4978185;28;20783;-69
2024/02/21 03:37:21;;;;;;;6.83;4.40;;;9.20;99.90;;;;;;4978523;28;20642;-69
2024/02/21 03:39:47;;;;;;;9.83;4.50;;;9.10;99.90;;;;;;4978746;28;20192;-70
2024/02/21 03:42:13;;;;;;;10.90;4.03;;;9.10;99.90;;;;;;4982817;28;20182;-69
2024/02/21 03:44:38;;;;;;;4.43;3.80;;;9.10;99.90;;;;;;4997168;28;20169;-69
2024/02/21 03:47:05;;;;;;;7.33;3.40;;;9.10;99.90;;;;;;4997344;28;20419;-69
2024/02/21 03:49:30;;;;;;;5.00;3.80;;;9.10;99.90;;;;;;4997483;28;20196;-69
2024/02/21 03:51:56;;;;;;;9.93;4.10;;;9.10;99.90;;;;;;4994932;28;20538;-68
2024/02/21 03:54:22;;;;;;;8.17;4.20;;;8.90;99.90;;;;;;4978308;28;20221;-69
2024/02/21 03:56:48;;;;;;;6.03;4.10;;;8.90;99.90;;;;;;4978049;28;20636;-69
2024/02/21 03:59:14;;;;;;;7.83;5.10;;;9.00;99.90;;;;;;4977451;28;20541;-68
2024/02/21 04:01:40;;;;;;;8.70;4.10;;;9.00;99.90;;;;;;4977535;28;20508;-69
2024/02/21 04:04:06;;;;;;;7.13;3.73;;;9.00;99.90;;;;;;4997183;28;20409;-68
2024/02/21 04:06:32;;;;;;;6.30;3.90;;;9.20;99.90;;;;;;4996804;28;20170;-69
2024/02/21 04:08:57;;;;;;;6.70;3.77;;;9.10;99.90;;;;;;4997030;28;20470;-69
2024/02/21 04:11:23;;;;;;;9.60;4.03;;;9.20;99.90;;;;;;4995370;28;20181;-69
2024/02/21 04:13:50;;;;;;;5.73;4.00;;;9.10;99.90;;;;;;4978913;28;20176;-70
2024/02/21 04:16:16;;;;;;;4.93;3.50;;;9.20;99.90;;;;;;4979746;28;20166;-70
2024/02/21 04:18:42;;;;;;;10.07;4.13;;;9.20;99.90;;;;;;4977338;28;20502;-69
2024/02/21 04:21:09;;;;;;;11.73;3.87;;;9.10;99.90;;;;;;4976737;28;21062;-68
2024/02/21 04:23:34;;;;;;;5.40;3.40;;;9.10;99.90;;;;;;4990034;28;20422;-70
2024/02/21 04:26:00;;;;;;;9.13;3.30;;;9.00;99.90;;;;;;4996959;28;20848;-68
2024/02/21 04:28:26;;;;;;;7.97;3.90;;;9.10;99.90;;;;;;4997220;28;20179;-69
2024/02/21 04:30:51;;;;;;;8.70;3.43;;;8.90;99.90;;;;;;4996257;28;20197;-69
2024/02/21 04:33:17;;;;;;;9.27;3.60;;;8.90;99.90;;;;;;4983334;28;20176;-69
2024/02/21 04:35:42;;;;;;;5.43;3.53;;;8.80;99.90;;;;;;4976767;28;20169;-69
2024/02/21 04:38:08;;;;;;;6.13;3.27;;;8.80;99.90;;;;;;4977880;28;20636;-70
2024/02/21 04:40:33;;;;;;;6.20;3.30;;;9.00;99.90;;;;;;4978192;28;20660;-69
2024/02/21 04:42:59;;;;;;;11.70;3.83;;;9.00;99.90;;;;;;4988654;28;20650;-69
2024/02/21 04:45:24;;;;;;;7.50;3.67;;;9.00;99.90;;;;;;4997368;28;20177;-69
2024/02/21 04:47:50;;;;;;;7.40;3.20;;;8.90;99.90;;;;;;4997675;28;20173;-69
2024/02/21 04:50:15;;;;;;;4.80;3.07;;;9.00;99.90;;;;;;4996609;28;20586;-69
2024/02/21 04:52:42;;;;;;;6.20;3.20;;;9.10;99.90;;;;;;4995853;28;20666;-69
2024/02/21 04:55:08;;;;;;;5.77;3.37;;;9.20;99.90;;;;;;4996348;28;20578;-69
2024/02/21 04:57:34;;;;;;;5.33;3.27;;;9.20;99.90;;;;;;4997199;28;20416;-69
2024/02/21 04:59:59;;;;;;;5.60;3.20;;;9.00;99.90;;;;;;4997208;28;20202;-70
2024/02/21 05:02:26;;;;;;;6.10;3.40;;;8.70;99.90;;;;;;4992162;28;20174;-70
2024/02/21 05:04:52;;;;;;;22.00;18.93;;;8.60;99.90;;;;;;4977291;28;20172;-69
2024/02/21 05:07:19;;;;;;;4.93;3.63;;;8.70;99.90;;;;;;4976451;28;20407;-69
2024/02/21 05:09:45;;;;;;;13.77;12.57;;;8.70;99.90;;;;;;4977491;28;20469;-70
2024/02/21 05:12:11;;;;;;;11.47;6.30;;;8.60;99.90;;;;;;4980806;28;20406;-69
2024/02/21 05:14:37;;;;;;;4.43;3.53;;;8.80;99.90;;;;;;4992053;28;20251;-70
2024/02/21 05:17:03;;;;;;;9.60;8.03;;;8.80;99.90;;;;;;4975065;28;20674;-70
2024/02/21 05:19:28;;;;;;;5.93;4.73;;;8.80;99.90;;;;;;4975853;28;20403;-70
2024/02/21 05:21:54;;;;;;;8.10;3.30;;;8.70;99.90;;;;;;5012656;23;20493;-71
2024/02/21 05:24:19;;;;;;;37.83;29.83;;;8.60;99.90;;;;;;4994518;28;20196;-71
2024/02/21 05:26:45;;;;;;;7.00;4.53;;;8.50;99.90;;;;;;4994683;28;20177;-70
2024/02/21 05:29:11;;;;;;;9.93;5.47;;;8.50;99.90;;;;;;4994369;28;20289;-71
2024/02/21 05:31:56;;;;;;;4.20;3.80;;;8.50;99.90;;;;;;4999956;28;20203;-71
2024/02/21 05:34:22;;;;;;;7.43;4.50;;;8.30;99.90;;;;;;4975291;28;20164;-71
2024/02/21 05:36:49;;;;;;;8.20;4.30;;;8.10;99.90;;;;;;4972810;28;20424;-70
2024/02/21 05:39:15;;;;;;;8.07;4.50;;;7.90;99.90;;;;;;4975076;28;20192;-71
2024/02/21 05:41:40;;;;;;;8.10;4.17;;;8.00;99.90;;;;;;4974749;28;20425;-71
2024/02/21 05:44:06;;;;;;;6.00;4.00;;;8.20;99.90;;;;;;4993015;28;20440;-70
2024/02/21 05:46:32;;;;;;;6.40;2.97;;;8.30;99.90;;;;;;4994235;28;20550;-70
2024/02/21 05:48:57;;;;;;;5.03;3.20;;;8.20;99.90;;;;;;4994057;28;20169;-70
2024/02/21 05:51:23;;;;;;;9.73;3.47;;;8.20;99.90;;;;;;4993869;28;20554;-70
2024/02/21 05:53:48;;;;;;;7.10;3.47;;;8.10;99.90;;;;;;4994057;28;20210;-71
2024/02/21 05:56:14;;;;;;;5.50;3.30;;;8.10;99.90;;;;;;4994105;28;20583;-71
2024/02/21 05:58:40;;;;;;;6.77;3.37;;;8.00;99.90;;;;;;4993909;28;20645;-71
2024/02/21 06:01:09;;;;;;;6.07;2.83;;;8.00;99.90;;;;;;5000202;28;20478;-71
2024/02/21 06:03:36;;;;;;;5.07;2.83;;;8.00;99.90;;;;;;4980375;28;20532;-71
2024/02/21 06:06:02;;;;;;;5.70;2.93;;;8.00;99.90;;;;;;4977491;28;20416;-72
2024/02/21 06:08:27;;;;;;;5.87;3.10;;;7.90;99.90;;;;;;4973182;28;20427;-70
2024/02/21 06:10:54;;;;;;;5.10;2.93;;;7.90;99.90;;;;;;4974844;28;20459;-70
2024/02/21 06:13:21;;;;;;;4.93;2.67;;;7.90;99.90;;;;;;4986255;28;20638;-71
2024/02/21 06:15:47;;;;;;;3.97;2.77;;;8.00;99.90;;;;;;4994052;28;20396;-72
2024/02/21 06:18:12;;;;;;;7.43;3.33;;;8.10;99.90;;;;;;4993624;28;20411;-71
2024/02/21 06:20:40;;;;;;;5.67;3.30;;;8.30;99.90;;;;;;4993728;28;20777;-71
2024/02/21 06:23:06;;;;;;;7.13;3.47;;;8.20;99.90;;;;;;4984184;28;20534;-71
2024/02/21 06:25:31;;;;;;;3.17;2.70;;;8.20;99.90;;;;;;4977201;28;20418;-71
2024/02/21 06:27:57;;;;;;;7.40;2.90;;;8.10;99.90;;;;;;4992386;28;20423;-71
2024/02/21 06:30:23;;;;;;;5.40;2.90;;;8.20;99.90;;;;;;4994054;28;20281;-71
2024/02/21 06:32:48;;;;;;;6.70;3.00;;;8.10;99.90;;;;;;4993459;28;20414;-72
2024/02/21 06:35:14;;;;;;;5.90;3.30;;;8.20;99.90;;;;;;4993684;28;20254;-71
2024/02/21 06:37:40;;;;;;;3.23;2.63;;;8.10;99.90;;;;;;4993816;28;20168;-71
2024/02/21 06:40:06;;;;;;;6.03;3.87;;;8.20;99.90;;;;;;4993704;28;20208;-71
2024/02/21 06:42:31;;;;;;;6.00;2.77;;;8.10;99.90;;;;;;4993641;28;20600;-71
2024/02/21 06:44:57;;;;;;;4.23;2.87;;;8.20;99.90;;;;;;4992241;28;20447;-72
2024/02/21 06:47:23;;;;;;;6.67;4.00;;;8.20;99.90;;;;;;4995094;28;20175;-71
2024/02/21 06:49:50;;;;;;;5.27;3.20;;;8.20;99.90;;;;;;4997357;28;20659;-71
2024/02/21 06:52:19;;;;;;;9.10;3.23;;;8.10;99.90;;;;;;4994706;28;20199;-72
2024/02/21 06:54:46;;;;;;;5.80;4.30;;;8.10;99.90;;;;;;4978524;28;20445;-72
2024/02/21 06:57:13;;;;;;;6.40;3.33;;;8.20;99.90;;;;;;4978038;28;20411;-72
2024/02/21 06:59:38;;;;;;;6.23;2.93;;;8.30;99.90;;;;;;4978126;28;20414;-71
2024/02/21 07:02:04;;;;;;;5.50;3.13;;;8.30;99.90;;;;;;4978535;28;20806;-72
2024/02/21 07:04:29;;;;;;;7.73;3.23;;;8.30;99.90;;;;;;4998407;28;20585;-72
2024/02/21 07:06:55;;;;;;;6.60;3.67;;;8.30;99.90;;;;;;4997459;28;20590;-70
2024/02/21 07:09:20;;;;;;;6.40;3.03;;;8.30;99.90;;;;;;4988522;28;20243;-70
2024/02/21 07:11:46;;;;;;;9.17;3.60;;;8.30;99.90;;;;;;4977598;28;20193;-71
2024/02/21 07:14:14;;;;;;;7.93;3.23;;;8.50;99.90;;;;;;4995275;28;20562;-70
2024/02/21 07:16:39;;;;;;;4.77;2.87;;;8.60;99.90;;;;;;4996894;28;20207;-69
2024/02/21 07:19:05;;;;;;;5.27;3.20;;;8.60;99.90;;;;;;4997229;28;20774;-71
2024/02/21 07:21:30;;;;;;;5.57;3.53;;;8.60;99.90;;;;;;4996777;28;20695;-71
2024/02/21 07:23:56;;;;;;;7.23;2.77;;;8.50;99.90;;;;;;4981174;28;20170;-70
2024/02/21 07:26:21;;;;;;;7.13;3.33;;;8.60;99.90;;;;;;4980218;28;20425;-73
2024/02/21 07:28:47;;;;;;;5.70;3.50;;;8.60;99.90;;;;;;4988432;28;20186;-72
2024/02/21 07:31:12;;;;;;;6.80;2.60;;;8.70;99.90;;;;;;4986893;28;20219;-72
2024/02/21 07:33:38;;;;;;;6.87;3.23;;;8.80;99.90;;;;;;4987774;28;20176;-73
2024/02/21 07:36:08;;;;;;;4.93;3.20;;;8.90;99.90;;;;;;4987594;28;20210;-74
2024/02/21 07:38:34;;;;;;;6.53;2.90;;;8.90;99.90;;;;;;4987497;28;20177;-72
2024/02/21 07:40:59;;;;;;;5.87;3.13;;;9.00;99.90;;;;;;4986718;28;20449;-72
2024/02/21 07:43:26;;;;;;;5.33;2.87;;;9.00;99.90;;;;;;4985832;28;20248;-72
2024/02/21 07:45:53;;;;;;;6.03;3.30;;;9.00;99.90;;;;;;4985416;28;20198;-71
2024/02/21 07:48:19;;;;;;;4.70;2.90;;;9.00;99.90;;;;;;4987341;28;20425;-72
2024/02/21 07:50:44;;;;;;;5.53;2.93;;;9.20;99.90;;;;;;4986480;28;20843;-72
2024/02/21 07:53:10;;;;;;;4.80;3.40;;;9.40;99.90;;;;;;4985503;28;20181;-72
2024/02/21 07:55:35;;;;;;;11.63;3.43;;;9.40;99.90;;;;;;4986645;28;20186;-72
2024/02/21 07:58:01;;;;;;;7.00;3.37;;;9.30;99.90;;;;;;4984599;28;20186;-72
2024/02/21 08:00:27;;;;;;;9.47;3.53;;;9.30;99.90;;;;;;4989764;28;20696;-70
2024/02/21 08:02:53;;;;;;;5.50;2.57;;;9.30;99.90;;;;;;4994944;28;20170;-71
2024/02/21 08:05:18;;;;;;;6.03;3.00;;;9.40;99.90;;;;;;4994714;28;20183;-71
2024/02/21 08:07:44;;;;;;;7.13;3.90;;;9.30;99.90;;;;;;4995749;28;20496;-70
2024/02/21 08:10:10;;;;;;;5.43;3.17;;;9.40;99.90;;;;;;4995950;28;20187;-70
2024/02/21 08:12:35;;;;;;;8.63;3.20;;;9.50;99.90;;;;;;4995751;28;20205;-71
2024/02/21 08:15:03;;;;;;;4.77;2.60;;;9.50;99.90;;;;;;4994522;28;20701;-73
2024/02/21 08:17:29;;;;;;;7.67;3.10;;;9.60;99.90;;;;;;4996004;28;20554;-71
2024/02/21 08:19:54;;;;;;;4.30;2.87;;;9.50;99.90;;;;;;4996038;28;20418;-71
2024/02/21 08:22:20;;;;;;;7.23;2.73;;;9.80;99.90;;;;;;4993282;28;20210;-71
2024/02/21 08:24:45;;;;;;;7.83;3.03;;;9.90;99.90;;;;;;4975071;28;20175;-70
2024/02/21 08:27:11;;;;;;;4.77;2.90;;;10.20;99.90;;;;;;4976330;28;20226;-71
2024/02/21 08:29:36;;;;;;;7.80;3.27;;;10.30;99.90;;;;;;4976036;28;20203;-71
2024/02/21 08:32:02;;;;;;;5.50;2.93;;;10.20;99.90;;;;;;4976473;28;20198;-71
2024/02/21 08:34:30;;;;;;;5.77;3.00;;;10.40;99.90;;;;;;4994635;28;20652;-73
2024/02/21 08:36:55;;;;;;;5.20;3.30;;;10.40;99.90;;;;;;4995410;28;20157;-73
2024/02/21 08:39:21;;;;;;;5.60;3.33;;;10.40;99.90;;;;;;4995281;28;20929;-71
2024/02/21 08:41:47;;;;;;;14.43;3.57;;;10.50;99.90;;;;;;4995133;28;20562;-71
2024/02/21 08:44:12;;;;;;;4.90;2.63;;;10.50;99.90;;;;;;4995261;28;20205;-71
2024/02/21 08:46:40;;;;;;;5.80;2.87;;;10.70;99.90;;;;;;4995114;28;20182;-71
2024/02/21 08:49:06;;;;;;;8.37;3.30;;;10.70;99.90;;;;;;4994929;28;20176;-73
2024/02/21 08:51:31;;;;;;;5.33;2.70;;;10.90;99.90;;;;;;4995037;28;20436;-72
2024/02/21 08:53:58;;;;;;;5.27;2.57;;;11.00;99.90;;;;;;4980667;28;20921;-72
2024/02/21 08:56:24;;;;;;;7.00;2.97;;;11.10;99.90;;;;;;4975423;28;20685;-70
2024/02/21 08:58:49;;;;;;;5.17;2.60;;;11.00;99.90;;;;;;4975612;28;20491;-73
2024/02/21 09:01:15;;;;;;;3.53;2.50;;;10.80;99.90;;;;;;4975291;28;20559;-71
2024/02/21 09:03:41;;;;;;;5.00;2.33;;;11.00;99.90;;;;;;4987480;28;20179;-71
2024/02/21 09:06:07;;;;;;;6.97;2.93;;;11.20;99.90;;;;;;4995131;28;20200;-71
2024/02/21 09:08:34;;;;;;;7.13;3.60;;;11.30;99.90;;;;;;4980178;28;20176;-70
2024/02/21 09:11:03;;;;;;;5.80;2.80;;;11.20;99.90;;;;;;4975310;28;20823;-70
2024/02/21 09:13:28;;;;;;;6.50;2.90;;;11.10;99.90;;;;;;4985644;28;20837;-71
2024/02/21 09:15:54;;;;;;;5.77;3.00;;;11.20;99.90;;;;;;4994582;28;20445;-71
2024/02/21 09:18:19;;;;;;;8.00;3.80;;;11.40;99.90;;;;;;4994456;28;20166;-71
2024/02/21 09:20:45;;;;;;;5.50;2.60;;;11.50;99.90;;;;;;4995190;28;20204;-69
2024/02/21 09:23:11;;;;;;;8.23;2.90;;;11.10;99.90;;;;;;4985353;28;20169;-69
2024/02/21 09:25:37;;;;;;;6.60;3.10;;;11.20;99.90;;;;;;4974471;28;20621;-70
2024/02/21 09:28:03;;;;;;;5.60;2.50;;;10.90;99.90;;;;;;4974911;28;20416;-70
2024/02/21 09:30:30;;;;;;;7.47;2.87;;;11.00;99.90;;;;;;4974813;28;20207;-70
2024/02/21 09:32:58;;;;;;;7.47;3.27;;;11.10;99.90;;;;;;4980476;28;20414;-70
2024/02/21 09:35:26;;;;;;;6.60;3.20;;;11.40;99.90;;;;;;4995303;28;20404;-70
2024/02/21 09:37:52;;;;;;;5.20;2.90;;;11.60;99.90;;;;;;4994108;28;20568;-69
2024/02/21 09:40:17;;;;;;;5.87;2.90;;;11.60;99.90;;;;;;4994254;28;20506;-70
2024/02/21 09:42:46;;;;;;;4.83;2.93;;;11.50;99.90;;;;;;4990424;28;20179;-70
2024/02/21 09:45:21;;;;;;;7.00;2.40;;;11.30;99.90;;;;;;4974876;28;20210;-69
2024/02/21 09:48:14;;;;;;;4.70;2.30;;;11.40;99.90;;;;;;4974916;28;20411;-70
2024/02/21 09:50:43;;;;;;;6.23;2.50;;;11.70;99.90;;;;;;4973705;28;20606;-70
2024/02/21 09:53:11;;;;;;;4.73;2.37;;;12.00;99.90;;;;;;4981610;28;20444;-70
2024/02/21 09:55:40;;;;;;;4.13;2.53;;;11.70;99.90;;;;;;4994308;28;20409;-70
2024/02/21 09:58:05;;;;;;;4.13;2.80;;;11.80;99.90;;;;;;4994052;28;20398;-70
2024/02/21 10:00:31;;;;;;;5.80;2.60;;;11.80;99.90;;;;;;4994102;28;20507;-70
2024/02/21 10:02:58;;;;;;;4.10;2.70;;;11.90;99.90;;;;;;4988389;28;20175;-70
2024/02/21 10:05:24;;;;;;;4.40;2.87;;;11.90;99.90;;;;;;4976995;28;20258;-70
2024/02/21 10:07:51;;;;;;;9.67;2.97;;;11.90;99.90;;;;;;4974396;28;20409;-70
2024/02/21 10:10:21;;;;;;;3.97;2.23;;;12.10;99.90;;;;;;4974729;28;20803;-70
2024/02/21 10:12:56;;;;;;;6.67;1.90;;;12.00;99.90;;;;;;4978202;28;20419;-70
2024/02/21 10:15:23;;;;;;;5.10;2.43;;;11.90;99.90;;;;;;4993728;28;20410;-69
2024/02/21 10:17:59;;;;;;;5.80;3.00;;;12.10;99.90;;;;;;4993614;28;20415;-70
2024/02/21 10:20:25;;;;;;;6.10;2.23;;;12.30;99.90;;;;;;4993574;28;20442;-71
2024/02/21 10:23:02;;;;;;;6.63;2.50;;;12.20;99.90;;;;;;4988899;28;20766;-70
2024/02/21 10:25:27;;;;;;;7.33;3.00;;;12.50;99.90;;;;;;4987634;28;20179;-70
2024/02/21 10:27:53;;;;;;;9.77;3.37;;;12.30;99.90;;;;;;4993531;28;20502;-70
2024/02/21 10:30:20;;;;;;;5.97;2.50;;;12.50;99.90;;;;;;4993914;28;20224;-70
2024/02/21 10:32:53;;;;;;;4.70;2.13;;;12.70;99.90;;;;;;4994161;28;20223;-71
2024/02/21 10:35:27;;;;;;;4.60;2.40;;;12.90;99.90;;;;;;4994120;28;20408;-70
2024/02/21 10:37:55;;;;;;;4.93;2.30;;;12.70;99.90;;;;;;4994934;28;20474;-70
2024/02/21 10:40:23;;;;;;;4.70;2.33;;;13.00;99.90;;;;;;4993565;28;20408;-70
2024/02/21 10:42:57;;;;;;;3.03;2.10;;;13.30;99.90;;;;;;4993935;28;20466;-70
2024/02/21 10:45:31;;;;;;;6.13;2.10;;;13.30;99.90;;;;;;4994270;28;20503;-70
2024/02/21 10:48:07;;;;;;;3.83;1.93;;;13.50;99.90;;;;;;4994056;28;20442;-70
2024/02/21 10:50:43;;;;;;;3.23;2.10;;;13.60;99.30;;;;;;4993826;28;20589;-69
2024/02/21 10:53:24;;;;;;;7.30;2.30;;;13.70;99.30;;;;;;4987313;28;20918;-70
2024/02/21 10:55:58;;;;;;;5.33;2.30;;;13.70;98.50;;;;;;4974254;28;20383;-69
2024/02/21 10:58:25;;;;;;;3.63;2.50;;;13.60;98.90;;;;;;4974780;28;20815;-70
2024/02/21 11:00:52;;;;;;;4.00;1.87;;;13.80;98.50;;;;;;4974049;28;20426;-70
2024/02/21 11:03:18;;;;;;;5.13;2.20;;;13.90;98.40;;;;;;4981029;28;20910;-70
2024/02/21 11:05:45;;;;;;;3.67;1.53;;;13.80;98.40;;;;;;4980906;28;20782;-70
2024/02/21 11:08:11;;;;;;;10.97;2.23;;;13.80;98.00;;;;;;4974481;28;20846;-70
2024/02/21 11:10:37;;;;;;;4.00;2.07;;;13.90;98.80;;;;;;4972796;28;20656;-70
2024/02/21 11:13:09;;;;;;;4.30;2.30;;;13.80;97.70;;;;;;4978790;28;20249;-69
2024/02/21 11:15:34;;;;;;;5.00;1.90;;;13.90;97.90;;;;;;4993448;28;20411;-70
2024/02/21 11:18:00;;;;;;;5.53;2.33;;;14.00;97.50;;;;;;4993121;28;20932;-69
2024/02/21 11:22:55;;;;;;;4.60;2.00;;;14.40;97.00;;;;;;5030365;28;20209;-69
2024/02/21 11:25:23;;;;;;;4.40;2.40;;;14.40;96.50;;;;;;5032368;28;20459;-69
2024/02/21 11:27:49;;;;;;;4.00;2.27;;;14.80;97.10;;;;;;5032451;28;20912;-70
2024/02/21 11:30:16;;;;;;;4.17;2.03;;;15.00;96.20;;;;;;5032556;28;20543;-69
2024/02/21 11:32:41;;;;;;;6.23;2.77;;;15.40;95.60;;;;;;5030874;28;20196;-69
2024/02/21 11:35:08;;;;;;;3.73;2.30;;;15.50;95.00;;;;;;5034181;28;20413;-70
2024/02/21 11:37:39;;;;;;;7.47;2.50;;;15.70;94.60;;;;;;5036440;28;20174;-69
2024/02/21 11:40:09;;;;;;;3.57;1.90;;;15.80;93.80;;;;;;5036599;28;20385;-71
2024/02/21 11:42:35;;;;;;;6.57;2.53;;;15.40;93.70;;;;;;5035957;28;20421;-70
2024/02/21 11:45:01;;;;;;;4.07;2.10;;;15.40;93.90;;;;;;5036610;28;20419;-70
2024/02/21 11:47:29;;;;;;;2.23;1.70;;;15.00;93.40;;;;;;5038232;28;20171;-70
2024/02/21 11:49:54;;;;;;;4.00;1.73;;;14.70;93.10;;;;;;5055364;28;20197;-71
2024/02/21 11:52:25;;;;;;;2.20;1.50;;;14.80;93.50;;;;;;5050999;28;20460;-70
2024/02/21 11:54:52;;;;;;;2.83;1.80;;;15.10;93.70;;;;;;5035719;28;20168;-69
2024/02/21 11:57:18;;;;;;;4.00;1.83;;;15.50;92.50;;;;;;5035498;28;20409;-69
2024/02/21 11:59:45;;;;;;;3.10;1.50;;;15.60;91.60;;;;;;5035441;28;20476;-69
2024/02/21 12:02:12;;;;;;;4.83;2.00;;;15.60;92.00;;;;;;5035363;28;20479;-69
2024/02/21 12:04:37;;;;;;;2.90;1.57;;;15.40;90.80;;;;;;5035382;28;20441;-69
2024/02/21 12:07:04;;;;;;;2.27;1.50;;;15.30;90.80;;;;;;5035365;28;20932;-69
2024/02/21 12:09:30;;;;;;;2.07;1.50;;;15.30;90.90;;;;;;5035099;28;20230;-69
2024/02/21 12:12:06;;;;;;;3.00;1.57;;;15.40;91.80;;;;;;5035227;28;20420;-71
2024/02/21 12:14:34;;;;;;;6.03;1.93;;;15.50;90.20;;;;;;5035062;28;20394;-69
2024/02/21 12:17:01;;;;;;;3.37;1.97;;;15.40;90.40;;;;;;5035238;28;20497;-69
2024/02/21 12:19:29;;;;;;;3.23;1.87;;;15.50;89.70;;;;;;5035007;28;20416;-69
2024/02/21 12:21:55;;;;;;;5.50;1.60;;;15.60;89.20;;;;;;5034741;28;20457;-69
2024/02/21 12:24:28;;;;;;;4.37;2.00;;;15.50;88.90;;;;;;5035091;28;20416;-70
2024/02/21 12:26:56;;;;;;;3.67;1.53;;;15.90;90.40;;;;;;5035013;28;20175;-69
2024/02/21 12:29:24;;;;;;;3.33;1.33;;;16.40;90.50;;;;;;5034981;28;20458;-70
2024/02/21 12:31:50;;;;;;;3.33;1.70;;;16.40;87.40;;;;;;5031282;28;20434;-69
2024/02/21 12:34:16;;;;;;;2.67;1.60;;;16.50;85.80;;;;;;5034757;28;20397;-69
2024/02/21 12:36:43;;;;;;;3.33;1.60;;;16.80;85.70;;;;;;5034897;28;20631;-69
2024/02/21 12:39:12;;;;;;;2.23;1.80;;;17.40;83.10;;;;;;5034972;28;20398;-69
2024/02/21 12:41:39;;;;;;;1.90;1.57;;;17.10;80.60;;;;;;5035020;28;20425;-68
2024/02/21 12:44:07;;;;;;;2.00;1.30;;;17.40;81.30;;;;;;5033424;28;20818;-69
2024/02/21 12:46:33;;;;;;;7.03;1.87;;;17.50;78.90;;;;;;5034399;28;20405;-70
2024/02/21 12:48:59;;;;;;;2.90;1.30;;;17.50;80.20;;;;;;5034513;28;20409;-70
2024/02/21 12:51:24;;;;;;;3.80;1.30;;;17.40;78.40;;;;;;5034443;28;20454;-70